createdAt,value
2023-02-12T00:00:05.845Z,1026.91
2023-02-12T00:03:05.842Z,1026.82
2023-02-12T00:06:05.848Z,1026.86
2023-02-12T00:09:05.841Z,1026.88
2023-02-12T00:12:05.859Z,1026.85
2023-02-12T00:15:05.851Z,1026.82
2023-02-12T00:18:05.854Z,1026.88
2023-02-12T00:21:05.842Z,1026.88
2023-02-12T00:24:05.847Z,1026.85
2023-02-12T00:27:05.852Z,1026.84
2023-02-12T00:30:05.852Z,1026.81
2023-02-12T00:33:05.842Z,1026.87
2023-02-12T00:36:05.841Z,1026.87
2023-02-12T00:39:05.845Z,1026.88
2023-02-12T00:42:05.856Z,1026.88
2023-02-12T00:45:05.854Z,1026.92
2023-02-12T00:48:05.854Z,1026.87
2023-02-12T00:51:05.840Z,1026.91
2023-02-12T00:54:05.856Z,1026.84
2023-02-12T00:57:05.853Z,1026.82
2023-02-12T01:00:05.844Z,1026.84
2023-02-12T01:03:05.847Z,1026.82
2023-02-12T01:06:05.855Z,1026.83
2023-02-12T01:09:05.848Z,1026.81
2023-02-12T01:12:05.878Z,1026.84
2023-02-12T01:15:05.844Z,1026.86
2023-02-12T01:18:05.848Z,1026.84
2023-02-12T01:21:05.871Z,1026.76
2023-02-12T01:24:05.848Z,1026.78
2023-02-12T01:27:05.864Z,1026.77
2023-02-12T01:30:05.860Z,1026.82
2023-02-12T01:33:05.869Z,1026.89
2023-02-12T01:36:05.914Z,1026.88
2023-02-12T01:39:05.876Z,1026.85
2023-02-12T01:42:06.120Z,1026.87
2023-02-12T01:45:05.861Z,1026.85
2023-02-12T01:48:05.858Z,1026.85
2023-02-12T01:51:05.865Z,1026.87
2023-02-12T01:54:05.875Z,1026.87
2023-02-12T01:57:05.875Z,1026.82
2023-02-12T02:00:05.867Z,1026.81
2023-02-12T02:03:05.942Z,1026.8
2023-02-12T02:06:05.863Z,1026.82
2023-02-12T02:09:05.868Z,1026.89
2023-02-12T02:12:05.871Z,1026.93
2023-02-12T02:15:05.982Z,1026.9
2023-02-12T02:18:05.869Z,1026.89
2023-02-12T02:21:05.867Z,1026.85
2023-02-12T02:24:05.872Z,1026.76
2023-02-12T02:27:05.863Z,1026.82
2023-02-12T02:30:05.870Z,1026.83
2023-02-12T02:33:05.864Z,1026.82
2023-02-12T02:36:05.878Z,1026.75
2023-02-12T02:39:05.868Z,1026.69
2023-02-12T02:42:05.871Z,1026.7
2023-02-12T02:45:05.864Z,1026.71
2023-02-12T02:48:05.871Z,1026.71
2023-02-12T02:51:05.866Z,1026.68
2023-02-12T02:54:05.866Z,1026.67
2023-02-12T02:57:05.871Z,1026.68
2023-02-12T03:00:05.877Z,1026.66
2023-02-12T03:03:05.924Z,1026.66
2023-02-12T03:06:05.869Z,1026.67
2023-02-12T03:09:05.867Z,1026.7
2023-02-12T03:12:05.870Z,1026.74
2023-02-12T03:15:05.872Z,1026.76
2023-02-12T03:18:05.874Z,1026.72
2023-02-12T03:21:05.872Z,1026.72
2023-02-12T03:24:05.886Z,1026.72
2023-02-12T03:27:05.878Z,1026.77
2023-02-12T03:30:05.878Z,1026.75
2023-02-12T03:33:05.891Z,1026.74
2023-02-12T03:36:05.888Z,1026.76
2023-02-12T03:39:05.879Z,1026.75
2023-02-12T03:42:05.890Z,1026.78
2023-02-12T03:45:05.882Z,1026.76
2023-02-12T03:48:05.886Z,1026.72
2023-02-12T03:51:05.887Z,1026.73
2023-02-12T03:54:05.892Z,1026.77
2023-02-12T03:57:05.887Z,1026.81
2023-02-12T04:00:05.886Z,1026.89
2023-02-12T04:03:05.888Z,1026.86
2023-02-12T04:06:05.888Z,1026.82
2023-02-12T04:09:05.886Z,1026.89
2023-02-12T04:12:05.884Z,1026.89
2023-02-12T04:15:05.877Z,1026.93
2023-02-12T04:18:05.887Z,1026.95
2023-02-12T04:21:05.881Z,1026.93
2023-02-12T04:24:05.878Z,1026.97
2023-02-12T04:27:05.887Z,1027.04
2023-02-12T04:30:05.884Z,1027.08
2023-02-12T04:33:05.888Z,1027.07
2023-02-12T04:36:05.906Z,1027.1
2023-02-12T04:39:05.908Z,1027.07
2023-02-12T04:42:05.911Z,1027.1
2023-02-12T04:45:05.901Z,1027.14
2023-02-12T04:48:05.894Z,1027.18
2023-02-12T04:51:05.893Z,1027.15
2023-02-12T04:54:05.911Z,1027.18
2023-02-12T04:57:05.897Z,1027.22
2023-02-12T05:00:05.894Z,1027.21
2023-02-12T05:03:05.901Z,1027.22
2023-02-12T05:06:05.903Z,1027.21
2023-02-12T05:09:05.907Z,1027.18
2023-02-12T05:12:05.900Z,1027.17
2023-02-12T05:15:05.899Z,1027.17
2023-02-12T05:18:05.894Z,1027.13
2023-02-12T05:21:05.896Z,1027.12
2023-02-12T05:24:05.912Z,1027.1
2023-02-12T05:27:05.903Z,1027.09
2023-02-12T05:30:05.906Z,1027.12
2023-02-12T05:33:05.903Z,1027.11
2023-02-12T05:36:05.901Z,1027.11
2023-02-12T05:39:05.902Z,1027.08
2023-02-12T05:42:05.901Z,1027.02
2023-02-12T05:45:05.917Z,1027.11
2023-02-12T05:48:05.922Z,1027.11
2023-02-12T05:51:05.920Z,1027.17
2023-02-12T05:54:05.929Z,1027.17
2023-02-12T05:57:05.911Z,1027.17
2023-02-12T06:00:05.941Z,1027.19
2023-02-12T06:03:05.930Z,1027.19
2023-02-12T06:06:05.924Z,1027.2
2023-02-12T06:09:05.913Z,1027.24
2023-02-12T06:12:05.919Z,1027.27
2023-02-12T06:15:05.929Z,1027.25
2023-02-12T06:18:05.921Z,1027.27
2023-02-12T06:21:05.921Z,1027.27
2023-02-12T06:24:05.934Z,1027.29
2023-02-12T06:27:06.051Z,1027.3
2023-02-12T06:30:05.939Z,1027.3
2023-02-12T06:33:05.929Z,1027.37
2023-02-12T06:36:05.921Z,1027.43
2023-02-12T06:39:05.928Z,1027.47
2023-02-12T06:42:05.937Z,1027.55
2023-02-12T06:45:05.953Z,1027.55
2023-02-12T06:48:05.924Z,1027.6
2023-02-12T06:51:05.934Z,1027.62
2023-02-12T06:54:05.930Z,1027.64
2023-02-12T06:57:05.928Z,1027.69
2023-02-12T07:00:05.970Z,1027.71
2023-02-12T07:03:05.924Z,1027.7
2023-02-12T07:06:05.935Z,1027.75
2023-02-12T07:09:06.043Z,1027.73
2023-02-12T07:12:05.937Z,1027.67
2023-02-12T07:15:05.947Z,1027.68
2023-02-12T07:18:05.937Z,1027.74
2023-02-12T07:21:05.942Z,1027.79
2023-02-12T07:24:05.943Z,1027.8
2023-02-12T07:27:05.939Z,1027.79
2023-02-12T07:30:05.952Z,1027.79
2023-02-12T07:33:05.941Z,1027.82
2023-02-12T07:36:05.948Z,1027.86
2023-02-12T07:39:05.946Z,1027.85
2023-02-12T07:42:05.937Z,1027.87
2023-02-12T07:45:05.958Z,1027.88
2023-02-12T07:48:05.952Z,1027.92
2023-02-12T07:51:05.939Z,1027.96
2023-02-12T07:54:05.943Z,1027.97
2023-02-12T07:57:05.941Z,1027.99
2023-02-12T08:00:05.969Z,1028.01
2023-02-12T08:03:05.952Z,1028.01
2023-02-12T08:06:05.955Z,1028.04
2023-02-12T08:09:05.940Z,1028.05
2023-02-12T08:12:05.952Z,1028.06
2023-02-12T08:15:05.951Z,1028.12
2023-02-12T08:18:05.943Z,1028.13
2023-02-12T08:21:05.971Z,1028.11
2023-02-12T08:24:05.944Z,1028.12
2023-02-12T08:27:05.948Z,1028.16
2023-02-12T08:30:05.944Z,1028.17
2023-02-12T08:33:06.072Z,1028.2
2023-02-12T08:36:05.943Z,1028.23
2023-02-12T08:39:05.944Z,1028.28
2023-02-12T08:42:05.947Z,1028.26
2023-02-12T08:45:05.948Z,1028.24
2023-02-12T08:48:05.938Z,1028.23
2023-02-12T08:51:05.946Z,1028.23
2023-02-12T08:54:05.952Z,1028.24
2023-02-12T08:57:05.953Z,1028.25
2023-02-12T09:00:05.954Z,1028.25
2023-02-12T09:03:05.946Z,1028.29
2023-02-12T09:06:05.959Z,1028.33
2023-02-12T09:09:05.960Z,1028.31
2023-02-12T09:12:05.944Z,1028.35
2023-02-12T09:15:05.956Z,1028.39
2023-02-12T09:18:05.955Z,1028.41
2023-02-12T09:21:05.996Z,1028.43
2023-02-12T09:24:05.954Z,1028.45
2023-02-12T09:27:05.961Z,1028.41
2023-02-12T09:30:05.965Z,1028.46
2023-02-12T09:33:05.965Z,1028.48
2023-02-12T09:36:05.960Z,1028.46
2023-02-12T09:39:05.962Z,1028.46
2023-02-12T09:42:05.968Z,1028.45
2023-02-12T09:45:05.971Z,1028.43
2023-02-12T09:48:05.963Z,1028.44
2023-02-12T09:51:05.966Z,1028.45
2023-02-12T09:54:05.969Z,1028.43
2023-02-12T09:57:05.970Z,1028.4
2023-02-12T10:00:05.983Z,1028.39
2023-02-12T10:03:06.140Z,1028.44
2023-02-12T10:06:05.984Z,1028.44
2023-02-12T10:09:05.976Z,1028.49
2023-02-12T10:12:05.980Z,1028.47
2023-02-12T10:15:05.972Z,1028.49
2023-02-12T10:18:05.979Z,1028.51
2023-02-12T10:21:05.979Z,1028.52
2023-02-12T10:24:05.990Z,1028.5
2023-02-12T10:27:05.983Z,1028.5
2023-02-12T10:30:05.979Z,1028.5
2023-02-12T10:33:05.986Z,1028.47
2023-02-12T10:36:05.980Z,1028.43
2023-02-12T10:39:05.980Z,1028.48
2023-02-12T10:42:05.973Z,1028.41
2023-02-12T10:45:05.976Z,1028.39
2023-02-12T10:48:05.976Z,1028.42
2023-02-12T10:51:05.980Z,1028.34
2023-02-12T10:54:05.979Z,1028.31
2023-02-12T10:57:05.974Z,1028.25
2023-02-12T11:00:05.973Z,1028.25
2023-02-12T11:03:06.059Z,1028.21
2023-02-12T11:06:05.981Z,1028.18
2023-02-12T11:09:05.977Z,1028.15
2023-02-12T11:12:05.985Z,1028.12
2023-02-12T11:15:05.983Z,1028.05
2023-02-12T11:18:05.994Z,1028.02
2023-02-12T11:21:05.983Z,1028
2023-02-12T11:24:05.992Z,1028.04
2023-02-12T11:27:05.986Z,1027.99
2023-02-12T11:30:05.982Z,1027.99
2023-02-12T11:33:05.989Z,1027.93
2023-02-12T11:36:07.289Z,1027.94
2023-02-12T11:39:05.990Z,1027.91
2023-02-12T11:42:05.993Z,1027.87
2023-02-12T11:45:05.996Z,1027.86
2023-02-12T11:48:05.994Z,1027.85
2023-02-12T11:51:06.004Z,1027.82
2023-02-12T11:54:05.997Z,1027.79
2023-02-12T11:57:05.995Z,1027.75
2023-02-12T12:00:05.985Z,1027.68
2023-02-12T12:03:06.185Z,1027.63
2023-02-12T12:06:06.005Z,1027.62
2023-02-12T12:09:05.994Z,1027.6
2023-02-12T12:12:06.008Z,1027.61
2023-02-12T12:15:06.002Z,1027.66
2023-02-12T12:18:06.008Z,1027.57
2023-02-12T12:21:06.000Z,1027.51
2023-02-12T12:24:06.015Z,1027.54
2023-02-12T12:27:05.998Z,1027.49
2023-02-12T12:30:05.996Z,1027.42
2023-02-12T12:33:06.008Z,1027.39
2023-02-12T12:36:05.999Z,1027.35
2023-02-12T12:39:06.006Z,1027.37
2023-02-12T12:42:06.001Z,1027.33
2023-02-12T12:45:06.002Z,1027.31
2023-02-12T12:48:06.009Z,1027.29
2023-02-12T12:51:06.016Z,1027.27
2023-02-12T12:54:06.031Z,1027.24
2023-02-12T12:57:06.038Z,1027.16
2023-02-12T13:00:06.032Z,1027.15
2023-02-12T13:03:06.029Z,1027.15
2023-02-12T13:06:06.034Z,1027.11
2023-02-12T13:09:06.025Z,1027.11
2023-02-12T13:12:06.039Z,1027.09
2023-02-12T13:15:06.039Z,1027.06
2023-02-12T13:18:06.040Z,1027.09
2023-02-12T13:21:06.036Z,1027.03
2023-02-12T13:24:06.056Z,1027.03
2023-02-12T13:27:06.056Z,1027.04
2023-02-12T13:30:06.055Z,1026.99
2023-02-12T13:33:06.056Z,1026.97
2023-02-12T13:36:06.040Z,1026.99
2023-02-12T13:39:06.088Z,1026.97
2023-02-12T13:42:06.063Z,1026.94
2023-02-12T13:45:06.052Z,1026.93
2023-02-12T13:48:06.069Z,1026.89
2023-02-12T13:51:06.068Z,1026.88
2023-02-12T13:54:06.046Z,1026.87
2023-02-12T13:57:06.052Z,1026.85
2023-02-12T14:00:06.052Z,1026.87
2023-02-12T14:03:06.068Z,1026.87
2023-02-12T14:06:06.072Z,1026.87
2023-02-12T14:09:06.067Z,1026.84
2023-02-12T14:12:06.083Z,1026.86
2023-02-12T14:15:06.067Z,1026.92
2023-02-12T14:18:06.046Z,1026.89
2023-02-12T14:21:06.045Z,1026.9
2023-02-12T14:24:06.032Z,1026.87
2023-02-12T14:27:06.031Z,1026.87
2023-02-12T14:30:06.041Z,1026.84
2023-02-12T14:33:06.054Z,1026.84
2023-02-12T14:36:06.035Z,1026.85
2023-02-12T14:39:06.054Z,1026.78
2023-02-12T14:42:06.039Z,1026.78
2023-02-12T14:45:06.065Z,1026.81
2023-02-12T14:48:06.054Z,1026.76
2023-02-12T14:51:06.046Z,1026.78
2023-02-12T14:54:06.048Z,1026.74
2023-02-12T14:57:06.053Z,1026.73
2023-02-12T15:00:06.055Z,1026.72
2023-02-12T15:03:06.058Z,1026.74
2023-02-12T15:06:06.069Z,1026.82
2023-02-12T15:09:06.054Z,1026.84
2023-02-12T15:12:06.051Z,1026.75
2023-02-12T15:15:06.047Z,1026.75
2023-02-12T15:18:06.052Z,1026.72
2023-02-12T15:21:06.047Z,1026.73
2023-02-12T15:24:06.057Z,1026.68
2023-02-12T15:27:06.053Z,1026.7
2023-02-12T15:30:07.278Z,1026.67
2023-02-12T15:33:06.065Z,1026.69
2023-02-12T15:36:06.054Z,1026.64
2023-02-12T15:39:06.048Z,1026.6
2023-02-12T15:42:06.086Z,1026.61
2023-02-12T15:45:06.045Z,1026.62
2023-02-12T15:48:06.045Z,1026.59
2023-02-12T15:51:06.056Z,1026.55
2023-02-12T15:54:06.057Z,1026.53
2023-02-12T15:57:06.065Z,1026.55
2023-02-12T16:00:06.069Z,1026.53
2023-02-12T16:03:06.063Z,1026.44
2023-02-12T16:06:06.061Z,1026.4
2023-02-12T16:09:06.072Z,1026.39
2023-02-12T16:12:06.047Z,1026.4
2023-02-12T16:15:06.162Z,1026.43
2023-02-12T16:18:06.157Z,1026.42
2023-02-12T16:21:06.162Z,1026.39
2023-02-12T16:24:06.212Z,1026.45
2023-02-12T16:27:06.172Z,1026.42
2023-02-12T16:30:06.181Z,1026.4
2023-02-12T16:33:06.171Z,1026.44
2023-02-12T16:36:06.167Z,1026.44
2023-02-12T16:39:06.225Z,1026.48
2023-02-12T16:42:06.186Z,1026.55
2023-02-12T16:45:06.173Z,1026.54
2023-02-12T16:48:06.162Z,1026.59
2023-02-12T16:51:06.223Z,1026.61
2023-02-12T16:54:06.179Z,1026.57
2023-02-12T16:57:06.306Z,1026.6
2023-02-12T17:00:06.178Z,1026.63
2023-02-12T17:03:06.211Z,1026.64
2023-02-12T17:06:06.182Z,1026.64
2023-02-12T17:09:06.193Z,1026.7
2023-02-12T17:12:06.193Z,1026.73
2023-02-12T17:15:06.193Z,1026.78
2023-02-12T17:18:06.191Z,1026.76
2023-02-12T17:21:06.188Z,1026.8
2023-02-12T17:24:06.189Z,1026.83
2023-02-12T17:27:06.191Z,1026.87
2023-02-12T17:30:06.193Z,1026.86
2023-02-12T17:33:06.195Z,1026.91
2023-02-12T17:36:06.213Z,1026.92
2023-02-12T17:39:06.208Z,1026.88
2023-02-12T17:42:06.200Z,1026.89
2023-02-12T17:45:06.212Z,1026.9
2023-02-12T17:48:06.195Z,1026.9
2023-02-12T17:51:06.219Z,1026.84
2023-02-12T17:54:06.209Z,1026.91
2023-02-12T17:57:06.215Z,1026.92
2023-02-12T18:00:06.232Z,1026.94
2023-02-12T18:03:06.215Z,1026.97
2023-02-12T18:06:06.212Z,1026.96
2023-02-12T18:09:06.207Z,1026.99
2023-02-12T18:12:06.236Z,1026.99
2023-02-12T18:15:06.220Z,1026.97
2023-02-12T18:18:06.201Z,1026.98
2023-02-12T18:21:06.223Z,1026.99
2023-02-12T18:24:06.224Z,1027.04
2023-02-12T18:27:06.203Z,1027.07
2023-02-12T18:30:06.194Z,1027.07
2023-02-12T18:33:06.250Z,1027.08
2023-02-12T18:36:06.199Z,1027.06
2023-02-12T18:39:06.200Z,1027.05
2023-02-12T18:42:06.236Z,1027.01
2023-02-12T18:45:06.201Z,1027.08
2023-02-12T18:48:06.198Z,1027.06
2023-02-12T18:51:06.225Z,1027.06
2023-02-12T18:54:07.444Z,1027.05
2023-02-12T18:57:06.212Z,1027.07
2023-02-12T19:00:06.207Z,1027.06
2023-02-12T19:03:06.211Z,1027.07
2023-02-12T19:06:06.214Z,1027.02
2023-02-12T19:09:06.205Z,1027.01
2023-02-12T19:12:06.198Z,1027
2023-02-12T19:15:06.862Z,1027.03
2023-02-12T19:18:06.831Z,1026.99
2023-02-12T19:21:06.826Z,1026.99
2023-02-12T19:24:06.836Z,1026.98
2023-02-12T19:27:06.831Z,1027
2023-02-12T19:30:06.835Z,1027.01
2023-02-12T19:33:06.815Z,1027.02
2023-02-12T19:36:06.825Z,1026.95
2023-02-12T19:39:06.828Z,1027.02
2023-02-12T19:42:06.831Z,1027.06
2023-02-12T19:45:06.836Z,1027.05
2023-02-12T19:48:06.830Z,1027.06
2023-02-12T19:51:06.827Z,1027.03
2023-02-12T19:54:06.875Z,1027.04
2023-02-12T19:57:06.823Z,1027.08
2023-02-12T20:00:06.831Z,1027.04
2023-02-12T20:03:06.878Z,1027.05
2023-02-12T20:06:06.823Z,1027.02
2023-02-12T20:09:06.840Z,1027.03
2023-02-12T20:12:06.833Z,1027.01
2023-02-12T20:15:06.837Z,1026.99
2023-02-12T20:18:06.859Z,1026.97
2023-02-12T20:21:06.837Z,1026.99
2023-02-12T20:24:06.857Z,1026.99
2023-02-12T20:27:06.858Z,1026.98
2023-02-12T20:30:06.835Z,1027
2023-02-12T20:33:06.871Z,1027
2023-02-12T20:36:06.845Z,1027.04
2023-02-12T20:39:06.835Z,1027.05
2023-02-12T20:42:06.836Z,1027.09
2023-02-12T20:45:06.849Z,1027.13
2023-02-12T20:48:06.862Z,1027.14
2023-02-12T20:51:06.859Z,1027.2
2023-02-12T20:54:06.847Z,1027.22
2023-02-12T20:57:06.845Z,1027.21
2023-02-12T21:00:06.840Z,1027.24
2023-02-12T21:03:06.903Z,1027.25
2023-02-12T21:06:06.841Z,1027.31
2023-02-12T21:09:06.837Z,1027.3
2023-02-12T21:12:06.844Z,1027.3
2023-02-12T21:15:06.839Z,1027.37
2023-02-12T21:18:06.946Z,1027.38
2023-02-12T21:21:06.837Z,1027.36
2023-02-12T21:24:06.842Z,1027.38
2023-02-12T21:27:06.832Z,1027.4
2023-02-12T21:30:06.831Z,1027.37
2023-02-12T21:33:06.842Z,1027.41
2023-02-12T21:36:06.834Z,1027.45
2023-02-12T21:39:06.836Z,1027.45
2023-02-12T21:42:06.851Z,1027.49
2023-02-12T21:45:06.836Z,1027.45
2023-02-12T21:48:06.840Z,1027.48
2023-02-12T21:51:06.961Z,1027.47
2023-02-12T21:54:06.835Z,1027.47
2023-02-12T21:57:06.834Z,1027.49
2023-02-12T22:00:06.838Z,1027.51
2023-02-12T22:03:06.828Z,1027.5
2023-02-12T22:06:06.835Z,1027.5
2023-02-12T22:09:06.827Z,1027.49
2023-02-12T22:12:06.840Z,1027.47
2023-02-12T22:15:06.833Z,1027.44
2023-02-12T22:18:06.828Z,1027.47
2023-02-12T22:21:07.062Z,1027.48
2023-02-12T22:24:06.830Z,1027.44
2023-02-12T22:27:06.836Z,1027.44
2023-02-12T22:30:06.838Z,1027.46
2023-02-12T22:33:06.835Z,1027.48
2023-02-12T22:36:06.835Z,1027.5
2023-02-12T22:39:06.838Z,1027.51
2023-02-12T22:42:06.835Z,1027.58
2023-02-12T22:45:06.837Z,1027.55
2023-02-12T22:48:06.831Z,1027.56
2023-02-12T22:51:06.842Z,1027.58
2023-02-12T22:54:06.847Z,1027.61
2023-02-12T22:57:06.845Z,1027.61
2023-02-12T23:00:06.837Z,1027.6
2023-02-12T23:03:06.840Z,1027.6
2023-02-12T23:06:06.840Z,1027.62
2023-02-12T23:09:06.833Z,1027.6
2023-02-12T23:12:06.830Z,1027.63
2023-02-12T23:15:06.841Z,1027.64
2023-02-12T23:18:06.837Z,1027.71
2023-02-12T23:21:06.845Z,1027.64
2023-02-12T23:24:06.852Z,1027.62
2023-02-12T23:27:06.863Z,1027.57
2023-02-12T23:30:06.864Z,1027.56
2023-02-12T23:33:06.871Z,1027.59
2023-02-12T23:36:06.890Z,1027.55
2023-02-12T23:39:06.893Z,1027.52
2023-02-12T23:42:06.874Z,1027.47
2023-02-12T23:45:06.879Z,1027.47
2023-02-12T23:48:06.879Z,1027.44
2023-02-12T23:51:06.876Z,1027.44
2023-02-12T23:54:06.877Z,1027.41
2023-02-12T23:57:06.879Z,1027.4
